logo
Search for airport 
image banner adimage banner adimage banner ad
image banner ad

MRBC - Barra Del Colorado

Located in Pococi, Costa Rica

ICAO - MRBC, IATA - BCL

Data provided by Airmate  

General information

Coordinates: N10°46'7" W83°35'8"
Elevation is 3 feet MSL.
 
View others Airports in Limon

Operational data

Special qualification required
Current time UTC:
Current local time:
Weather at : - ( 0 km )
METAR: KXSA 202235Z AUTO 00000KT 10SM CLR 21/11 A2990 RMK AO2 T02070114
View NOTAMs / SUP AIP / TFR affecting this airport [VIEW]
Communications frequencies: [VIEW]

Runways:

RWY identifierQFULength (ft)Width (ft)SurfaceLDA (ft)
16164°328139ASP
34344°328139ASP

Airport contact information

Address: Pococi Costa Rica

Satellite view of MRBC